createdAt,value
2017-11-21T00:00:51.693Z,0.2
2017-11-21T00:01:51.685Z,0.2
2017-11-21T00:02:51.692Z,0.2
2017-11-21T00:03:51.680Z,0.2
2017-11-21T00:04:51.682Z,0.1
2017-11-21T00:05:51.732Z,0.1
2017-11-21T00:06:51.668Z,0.1
2017-11-21T00:07:51.653Z,0.1
2017-11-21T00:08:51.680Z,0.1
2017-11-21T00:09:51.680Z,0.2
2017-11-21T00:10:51.735Z,0.2
2017-11-21T00:15:51.738Z,0.1
2017-11-21T00:16:51.656Z,0.1
2017-11-21T00:17:51.653Z,0.1
2017-11-21T00:18:51.671Z,0.3
2017-11-21T00:19:51.657Z,0.4
2017-11-21T00:20:51.707Z,0.7
2017-11-21T00:21:51.672Z,0.7
2017-11-21T00:22:51.669Z,1.1
2017-11-21T00:23:51.660Z,1.1
2017-11-21T00:24:51.648Z,1.4
2017-11-21T00:25:51.727Z,1.4
2017-11-21T00:26:51.658Z,1.4
2017-11-21T00:27:51.676Z,1.7
2017-11-21T00:28:51.677Z,1.5
2017-11-21T00:29:51.659Z,1.7
2017-11-21T00:30:51.715Z,1.8
2017-11-21T00:31:51.660Z,1.8
2017-11-21T00:32:51.666Z,1.8
2017-11-21T00:33:51.665Z,2
2017-11-21T00:34:51.713Z,1.9
2017-11-21T00:35:51.721Z,1.7
2017-11-21T00:36:51.667Z,1.8
2017-11-21T00:37:51.668Z,1.7
2017-11-21T00:38:51.658Z,1.6
2017-11-21T00:39:51.636Z,1.6
2017-11-21T00:40:51.719Z,2
2017-11-21T00:41:51.667Z,2
2017-11-21T00:42:51.662Z,2
2017-11-21T00:43:51.655Z,1.8
2017-11-21T00:44:51.643Z,1.7
2017-11-21T00:45:51.719Z,1.5
2017-11-21T00:46:51.735Z,1.5
2017-11-21T00:47:51.633Z,1.5
2017-11-21T00:48:51.668Z,1.6
2017-11-21T00:49:51.666Z,1.8
2017-11-21T00:50:51.710Z,2
2017-11-21T00:51:51.648Z,2.1
2017-11-21T00:52:51.633Z,2.2
2017-11-21T00:53:51.665Z,2.2
2017-11-21T00:54:54.136Z,2.5
2017-11-21T00:55:51.714Z,3.4
2017-11-21T00:56:51.656Z,3.5
2017-11-21T00:57:51.646Z,4
2017-11-21T00:58:51.640Z,4.1
2017-11-21T00:59:51.621Z,4
2017-11-21T01:00:51.680Z,4.8
2017-11-21T01:01:51.683Z,4.7
2017-11-21T01:02:51.643Z,4.6
2017-11-21T01:03:51.637Z,4.6
2017-11-21T01:04:51.642Z,4.8
2017-11-21T01:05:51.694Z,5.2
2017-11-21T01:06:51.628Z,5.3
2017-11-21T01:07:51.633Z,5
2017-11-21T01:08:51.632Z,5.5
2017-11-21T01:09:51.635Z,5.2
2017-11-21T01:10:51.685Z,5.7
2017-11-21T01:11:51.629Z,5.5
2017-11-21T01:12:51.629Z,5.9
2017-11-21T01:13:51.629Z,6.2
2017-11-21T01:14:51.641Z,5.9
2017-11-21T01:15:51.683Z,5.8
2017-11-21T01:16:51.625Z,5.7
2017-11-21T01:17:51.625Z,5.5
2017-11-21T01:18:51.628Z,5.3
2017-11-21T01:19:51.625Z,5.2
2017-11-21T01:20:51.688Z,5.3
2017-11-21T01:21:51.612Z,5.4
2017-11-21T01:22:51.623Z,5.4
2017-11-21T01:23:51.610Z,5.4
2017-11-21T01:24:51.625Z,5
2017-11-21T01:25:51.686Z,5.6
2017-11-21T01:26:51.633Z,5.5
2017-11-21T01:27:51.624Z,5.5
2017-11-21T01:28:51.625Z,5.5
2017-11-21T01:29:51.622Z,5.7
2017-11-21T01:30:51.703Z,5.8
2017-11-21T01:31:51.612Z,6
2017-11-21T01:32:51.616Z,6.1
2017-11-21T01:33:51.624Z,6.8
2017-11-21T01:34:51.615Z,7.9
2017-11-21T01:35:51.668Z,8.6
2017-11-21T01:36:51.618Z,8.5
2017-11-21T01:37:51.624Z,8.7
2017-11-21T01:38:51.625Z,9.5
2017-11-21T01:39:51.611Z,9.5
2017-11-21T01:40:51.688Z,9.6
2017-11-21T01:41:51.611Z,10.5
2017-11-21T01:42:51.614Z,10.7
2017-11-21T01:43:51.621Z,11
2017-11-21T01:44:51.608Z,11.4
2017-11-21T01:45:51.661Z,11.7
2017-11-21T01:46:51.610Z,12
2017-11-21T01:47:51.617Z,12.3
2017-11-21T01:48:51.608Z,12.4
2017-11-21T01:49:51.654Z,12.9
2017-11-21T01:50:51.650Z,13.7
2017-11-21T01:51:51.600Z,14.4
2017-11-21T01:52:51.608Z,13.7
2017-11-21T01:53:51.611Z,14
2017-11-21T01:54:51.602Z,13.9
2017-11-21T01:55:51.592Z,14.1
2017-11-21T01:56:51.609Z,13.7
2017-11-21T01:57:51.595Z,13.6
2017-11-21T01:58:51.612Z,14.9
2017-11-21T01:59:51.617Z,16
2017-11-21T02:00:51.605Z,17.3
2017-11-21T02:01:51.596Z,17.9
2017-11-21T02:02:51.598Z,18.4
2017-11-21T02:03:51.607Z,18
2017-11-21T02:04:51.602Z,18.8
2017-11-21T02:05:51.631Z,18.8
2017-11-21T02:06:51.588Z,18.3
2017-11-21T02:07:51.612Z,17.8
2017-11-21T02:08:51.614Z,17.5
2017-11-21T02:09:51.594Z,17.1
2017-11-21T02:10:51.609Z,16.8
2017-11-21T02:11:51.595Z,17
2017-11-21T02:12:51.602Z,17.4
2017-11-21T02:13:51.610Z,18.2
2017-11-21T02:14:51.603Z,17.7
2017-11-21T02:15:51.582Z,18.1
2017-11-21T02:16:51.697Z,17.8
2017-11-21T02:17:51.605Z,17.7
2017-11-21T02:18:51.614Z,18
2017-11-21T02:19:51.603Z,17.8
2017-11-21T02:20:51.594Z,17.7
2017-11-21T02:21:51.588Z,18.1
2017-11-21T02:22:51.595Z,17.2
2017-11-21T02:23:51.597Z,17.3
2017-11-21T02:24:51.598Z,17.9
2017-11-21T02:25:51.615Z,18.3
2017-11-21T02:26:51.592Z,18.3
2017-11-21T02:27:51.585Z,18.7
2017-11-21T02:28:51.603Z,19
2017-11-21T02:29:51.587Z,19.8
2017-11-21T02:30:51.605Z,19.7
2017-11-21T02:31:51.597Z,19.8
2017-11-21T02:32:51.592Z,19.7
2017-11-21T02:33:51.589Z,19.9
2017-11-21T02:34:51.607Z,19.5
2017-11-21T02:35:51.600Z,19.5
2017-11-21T02:36:51.596Z,18.8
2017-11-21T02:37:51.576Z,18.8
2017-11-21T02:38:51.590Z,18.1
2017-11-21T02:39:51.584Z,18.6
2017-11-21T02:40:51.582Z,18.6
2017-11-21T02:41:51.591Z,18.3
2017-11-21T02:42:51.591Z,18.8
2017-11-21T02:43:51.596Z,19.6
2017-11-21T02:44:51.578Z,19.4
2017-11-21T02:45:51.598Z,19.3
2017-11-21T02:46:51.670Z,19.2
2017-11-21T02:47:51.587Z,18.1
2017-11-21T02:48:51.575Z,17.7
2017-11-21T02:49:51.571Z,18.2
2017-11-21T02:50:51.598Z,18.4
2017-11-21T02:51:51.589Z,18.5
2017-11-21T02:52:51.593Z,18.6
2017-11-21T02:53:51.568Z,18.1
2017-11-21T02:54:51.576Z,18.6
2017-11-21T02:55:51.573Z,18.8
2017-11-21T02:56:51.621Z,18.6
2017-11-21T02:57:51.583Z,18.3
2017-11-21T02:58:51.608Z,17.6
2017-11-21T02:59:51.580Z,17.3
2017-11-21T03:00:51.577Z,17.1
2017-11-21T03:01:51.635Z,16.6
2017-11-21T03:02:51.576Z,16.2
2017-11-21T03:03:51.573Z,15.8
2017-11-21T03:04:51.584Z,15.1
2017-11-21T03:05:51.571Z,14.9
2017-11-21T03:06:51.639Z,15.3
2017-11-21T03:07:51.575Z,15.3
2017-11-21T03:08:51.597Z,14.8
2017-11-21T03:09:51.569Z,14.5
2017-11-21T03:10:51.570Z,14.7
2017-11-21T03:11:51.633Z,15.5
2017-11-21T03:12:51.674Z,15.7
2017-11-21T03:13:51.561Z,15
2017-11-21T03:14:51.575Z,14.8
2017-11-21T03:15:51.558Z,14.4
2017-11-21T03:16:51.643Z,14.8
2017-11-21T03:17:51.565Z,15.3
2017-11-21T03:18:51.573Z,15.4
2017-11-21T03:19:51.570Z,16.1
2017-11-21T03:20:51.571Z,16.2
2017-11-21T03:21:51.619Z,16.4
2017-11-21T03:22:51.586Z,16.9
2017-11-21T03:23:51.570Z,16.6
2017-11-21T03:24:51.569Z,17.5
2017-11-21T03:25:51.569Z,18.2
2017-11-21T03:26:51.647Z,18.9
2017-11-21T03:27:51.575Z,19.3
2017-11-21T03:28:51.572Z,19.9
2017-11-21T03:29:51.561Z,20.4
2017-11-21T03:30:51.567Z,20.9
2017-11-21T03:31:51.629Z,21.3
2017-11-21T03:32:51.567Z,22.3
2017-11-21T03:33:51.574Z,22.8
2017-11-21T03:34:51.556Z,23.1
2017-11-21T03:35:51.567Z,23.2
2017-11-21T03:36:51.571Z,23.3
2017-11-21T03:37:51.572Z,23.4
2017-11-21T03:38:51.559Z,23.3
2017-11-21T03:39:51.558Z,22.6
2017-11-21T03:40:51.565Z,22.6
2017-11-21T03:41:51.589Z,22.8
2017-11-21T03:42:51.571Z,23.5
2017-11-21T03:43:51.564Z,23.9
2017-11-21T03:44:51.565Z,24.1
2017-11-21T03:45:51.564Z,23.7
2017-11-21T03:46:51.558Z,24.1
2017-11-21T03:47:51.550Z,23.5
2017-11-21T03:48:51.549Z,23.9
2017-11-21T03:49:51.550Z,24.9
2017-11-21T03:50:51.563Z,25
2017-11-21T03:51:51.553Z,25.5
2017-11-21T03:52:51.549Z,25.5
2017-11-21T03:53:51.548Z,24.9
2017-11-21T03:54:51.549Z,25
2017-11-21T03:56:13.454Z,2.3
2017-11-21T03:57:13.487Z,4.6
2017-11-21T03:58:13.443Z,6.8
2017-11-21T03:59:13.442Z,8.9
2017-11-21T04:00:13.447Z,10
2017-11-21T04:01:13.450Z,10.6
2017-11-21T04:02:13.506Z,11.7
2017-11-21T04:03:13.435Z,13.2
2017-11-21T04:04:13.450Z,13.9
2017-11-21T04:05:13.433Z,14.8
2017-11-21T04:06:13.451Z,15.7
2017-11-21T04:07:13.482Z,16.2
2017-11-21T04:08:13.452Z,17
2017-11-21T04:09:13.448Z,17.5
2017-11-21T04:10:13.444Z,18.4
2017-11-21T04:11:13.436Z,18.8
2017-11-21T04:12:13.447Z,19.2
2017-11-21T04:13:13.439Z,19
2017-11-21T04:14:13.436Z,19
2017-11-21T04:15:13.442Z,18.3
2017-11-21T04:16:13.662Z,18.4
2017-11-21T04:17:13.430Z,18
2017-11-21T04:18:13.442Z,17.6
2017-11-21T04:19:13.429Z,17.4
2017-11-21T04:20:13.428Z,17.1
2017-11-21T04:21:13.429Z,17.1
2017-11-21T04:22:13.437Z,17.7
2017-11-21T04:23:13.434Z,17.8
2017-11-21T04:24:13.433Z,18.1
2017-11-21T04:25:13.432Z,18.1
2017-11-21T04:26:13.431Z,18.7
2017-11-21T04:27:13.434Z,19.1
2017-11-21T04:28:13.431Z,19.7
2017-11-21T04:29:13.435Z,20.3
2017-11-21T04:30:13.441Z,20.5
2017-11-21T04:31:13.433Z,20.7
2017-11-21T04:32:13.447Z,21.2
2017-11-21T04:33:13.426Z,21.2
2017-11-21T04:34:13.432Z,21.6
2017-11-21T04:35:13.430Z,22
2017-11-21T04:36:13.420Z,22.1
2017-11-21T04:37:13.431Z,21.9
2017-11-21T04:38:13.429Z,22.3
2017-11-21T04:39:13.430Z,22.5
2017-11-21T04:40:13.415Z,23.2
2017-11-21T04:41:13.464Z,23.8
2017-11-21T04:42:13.423Z,24
2017-11-21T04:43:13.438Z,23.8
2017-11-21T04:44:13.427Z,23.9
2017-11-21T04:45:13.434Z,23.6
2017-11-21T04:46:13.423Z,23.4
2017-11-21T04:47:13.426Z,22.4
2017-11-21T04:48:13.420Z,22.1
2017-11-21T04:49:13.437Z,21.3
2017-11-21T04:50:13.424Z,21.9
2017-11-21T04:51:13.440Z,21.6
2017-11-21T04:52:13.418Z,21.5
2017-11-21T04:53:13.422Z,22
2017-11-21T04:54:13.428Z,21.8
2017-11-21T04:55:13.412Z,21.1
2017-11-21T04:56:13.445Z,20.8
2017-11-21T04:57:13.439Z,20.7
2017-11-21T04:58:13.430Z,20.3
2017-11-21T04:59:13.408Z,20.5
2017-11-21T05:00:13.412Z,20.4
2017-11-21T05:01:13.436Z,20.4
2017-11-21T05:02:13.423Z,20.7
2017-11-21T05:03:13.409Z,21.2
2017-11-21T05:04:13.418Z,21
2017-11-21T05:05:13.409Z,21.2
2017-11-21T05:06:13.414Z,20.9
2017-11-21T05:07:13.416Z,20.8
2017-11-21T05:08:13.425Z,21
2017-11-21T05:09:13.428Z,21
2017-11-21T05:10:13.415Z,20.3
2017-11-21T05:11:13.442Z,20
2017-11-21T05:12:13.420Z,19.7
2017-11-21T05:13:13.419Z,19.7
2017-11-21T05:14:13.429Z,19.1
2017-11-21T05:15:13.420Z,18.2
2017-11-21T05:16:13.416Z,17.4
2017-11-21T05:17:13.406Z,17.6
2017-11-21T05:18:13.411Z,17.7
2017-11-21T05:19:13.404Z,17.9
2017-11-21T05:20:13.418Z,18.7
2017-11-21T05:21:13.553Z,18.9
2017-11-21T05:22:13.429Z,19.7
2017-11-21T05:23:13.426Z,19.8
2017-11-21T05:24:13.410Z,19.8
2017-11-21T05:25:13.405Z,20.1
2017-11-21T05:26:13.414Z,20
2017-11-21T05:27:13.401Z,20.1
2017-11-21T05:28:13.421Z,20
2017-11-21T05:29:13.407Z,19.5
2017-11-21T05:30:13.410Z,19.4
2017-11-21T05:31:13.418Z,19.4
2017-11-21T05:32:13.408Z,19.6
2017-11-21T05:33:13.401Z,19.7
2017-11-21T05:34:13.409Z,20.1
2017-11-21T05:35:13.389Z,20.3
2017-11-21T05:36:13.405Z,19.9
2017-11-21T05:37:13.406Z,20.3
2017-11-21T05:38:13.391Z,20.5
2017-11-21T05:39:13.414Z,20.1
2017-11-21T05:40:13.410Z,19.4
2017-11-21T05:41:13.404Z,18.9
2017-11-21T05:42:13.406Z,19.2
2017-11-21T05:43:13.394Z,19.1
2017-11-21T05:44:13.422Z,18.7
2017-11-21T05:45:13.411Z,19.6
2017-11-21T05:46:13.409Z,20.3
2017-11-21T05:47:13.449Z,21
2017-11-21T05:48:13.399Z,21.1
2017-11-21T05:49:13.457Z,21.4
2017-11-21T05:50:13.405Z,21.4
2017-11-21T05:51:17.331Z,21
2017-11-21T05:52:13.410Z,21.2
2017-11-21T05:53:13.414Z,20.8
2017-11-21T05:54:13.399Z,19.9
2017-11-21T05:55:13.417Z,19.9
2017-11-21T05:56:13.400Z,19.8
2017-11-21T05:57:13.394Z,19.7
2017-11-21T05:58:13.388Z,19.9
2017-11-21T05:59:13.396Z,19.9
2017-11-21T06:00:13.405Z,19.7
2017-11-21T06:01:13.406Z,20.6
2017-11-21T06:02:13.416Z,21.1
2017-11-21T06:03:13.394Z,21.5
2017-11-21T06:04:13.383Z,22.2
2017-11-21T06:05:13.408Z,22.4
2017-11-21T06:06:13.416Z,22.8
2017-11-21T06:07:13.392Z,21.9
2017-11-21T06:08:13.395Z,21.5
2017-11-21T06:09:13.401Z,21.2
2017-11-21T06:10:13.408Z,20.4
2017-11-21T06:11:13.385Z,19.6
2017-11-21T06:12:13.386Z,19.7
2017-11-21T06:13:13.394Z,19.8
2017-11-21T06:14:13.397Z,19.7
2017-11-21T06:15:13.397Z,19.5
2017-11-21T06:16:13.379Z,19.4
2017-11-21T06:17:13.395Z,19
2017-11-21T06:18:13.405Z,18.1
2017-11-21T06:19:13.373Z,18.4
2017-11-21T06:20:13.388Z,17.9
2017-11-21T06:21:13.591Z,17.8
2017-11-21T06:22:13.390Z,18.1
2017-11-21T06:23:13.423Z,18.3
2017-11-21T06:24:13.389Z,18.3
2017-11-21T06:25:13.383Z,18
2017-11-21T06:26:13.384Z,17.9
2017-11-21T06:27:13.381Z,17.6
2017-11-21T06:28:13.642Z,17.4
2017-11-21T06:29:13.397Z,18.1
2017-11-21T06:30:13.387Z,17.8
2017-11-21T06:31:13.383Z,17.9
2017-11-21T06:32:13.369Z,17.7
2017-11-21T06:33:13.449Z,18.7
2017-11-21T06:34:13.372Z,18.9
2017-11-21T06:35:13.376Z,19.5
2017-11-21T06:36:13.393Z,19.4
2017-11-21T06:37:13.377Z,20.1
2017-11-21T06:38:13.434Z,20.6
2017-11-21T06:39:13.377Z,21.1
2017-11-21T06:40:13.389Z,21.2
2017-11-21T06:41:13.403Z,21.1
2017-11-21T06:42:13.391Z,21.7
2017-11-21T06:43:13.441Z,22.4
2017-11-21T06:44:13.381Z,22.5
2017-11-21T06:45:13.397Z,22.6
2017-11-21T06:46:13.382Z,22.7
2017-11-21T06:47:13.380Z,22.9
2017-11-21T06:48:13.454Z,23
2017-11-21T06:49:13.377Z,23.2
2017-11-21T06:50:13.370Z,23.2
2017-11-21T06:51:13.378Z,23.4
2017-11-21T06:52:13.388Z,23.5
2017-11-21T06:53:13.434Z,24.1
2017-11-21T06:54:13.368Z,24.1
2017-11-21T06:55:13.377Z,23.9
2017-11-21T06:56:13.368Z,23.6
2017-11-21T06:57:13.413Z,23.5
2017-11-21T06:58:13.471Z,23.7
2017-11-21T06:59:13.384Z,23.1
2017-11-21T07:00:13.380Z,22.9
2017-11-21T07:01:13.400Z,23.2
2017-11-21T07:02:13.367Z,22.7
2017-11-21T07:03:13.426Z,22.7
2017-11-21T07:04:16.409Z,22.5
2017-11-21T07:05:13.365Z,22.3
2017-11-21T07:06:13.367Z,22.3
2017-11-21T07:07:13.382Z,22.6
2017-11-21T07:08:13.424Z,22.4
2017-11-21T07:09:13.415Z,22.6
2017-11-21T07:10:13.472Z,23
2017-11-21T07:11:13.596Z,22.9
2017-11-21T07:12:17.762Z,23.2
2017-11-21T07:13:16.365Z,23.8
2017-11-21T07:14:13.749Z,23.8
2017-11-21T07:15:13.541Z,23.4
2017-11-21T07:16:13.456Z,22.7
2017-11-21T07:17:13.784Z,23.2
2017-11-21T07:18:14.130Z,22.9
2017-11-21T07:19:13.910Z,22.9
2017-11-21T07:20:13.525Z,23.3
2017-11-21T07:21:13.648Z,23.5
2017-11-21T07:22:13.622Z,22.7
2017-11-21T07:23:13.560Z,21.9
2017-11-21T07:24:13.561Z,20.8
2017-11-21T07:25:13.542Z,21.1
2017-11-21T07:26:13.781Z,20.7
2017-11-21T07:27:13.462Z,20.6
2017-11-21T07:28:13.489Z,20.3
2017-11-21T07:29:13.761Z,20.1
2017-11-21T07:30:13.573Z,20.3
2017-11-21T07:31:13.761Z,20
2017-11-21T07:32:13.369Z,19.2
2017-11-21T07:33:13.362Z,18.5
2017-11-21T07:34:13.511Z,17.8
2017-11-21T07:35:13.645Z,16.7
2017-11-21T07:36:13.360Z,16.1
2017-11-21T07:37:13.473Z,15.5
2017-11-21T07:38:13.561Z,14.9
2017-11-21T07:39:13.358Z,14.9
2017-11-21T07:40:13.404Z,14.6
2017-11-21T07:41:13.563Z,14
2017-11-21T07:42:13.621Z,13.9
2017-11-21T07:43:15.738Z,13.6
2017-11-21T07:44:13.361Z,14.1
2017-11-21T07:45:13.419Z,14.7
2017-11-21T07:46:13.372Z,15.6
2017-11-21T07:47:13.415Z,15.9
2017-11-21T07:48:13.688Z,16.8
2017-11-21T07:49:13.567Z,17.2
2017-11-21T07:50:13.633Z,18.2
2017-11-21T07:51:13.412Z,19
2017-11-21T07:52:13.559Z,19.8
2017-11-21T07:53:13.358Z,20.5
2017-11-21T07:54:13.539Z,20.9
2017-11-21T07:55:16.586Z,21
2017-11-21T07:56:13.352Z,21.3
2017-11-21T07:57:13.565Z,22.1
2017-11-21T07:59:03.918Z,2.3
2017-11-21T08:00:01.216Z,4.7
2017-11-21T08:01:00.829Z,6.6
2017-11-21T08:02:00.961Z,8.4
2017-11-21T08:03:00.952Z,9.8
2017-11-21T08:04:00.872Z,11.1
2017-11-21T08:05:01.035Z,12.3
2017-11-21T08:06:00.832Z,13.5
2017-11-21T08:07:10.818Z,14.3
2017-11-21T08:08:00.964Z,14.9
2017-11-21T08:09:00.908Z,16
2017-11-21T08:10:00.830Z,17
2017-11-21T08:11:00.810Z,17.8
2017-11-21T08:12:00.965Z,18.6
2017-11-21T08:13:01.002Z,19
2017-11-21T08:14:00.905Z,19.2
2017-11-21T08:15:02.501Z,19.5
2017-11-21T08:16:00.996Z,20.1
2017-11-21T08:17:00.940Z,20.6
2017-11-21T08:18:00.802Z,20.5
2017-11-21T08:19:01.262Z,20.5
2017-11-21T08:20:00.938Z,20.3
2017-11-21T08:21:00.901Z,20
2017-11-21T08:22:02.527Z,20.1
2017-11-21T08:23:00.804Z,20.2
2017-11-21T08:24:00.848Z,20.4
2017-11-21T08:25:00.811Z,20.2
2017-11-21T08:26:00.820Z,19.9
2017-11-21T08:27:00.796Z,20
2017-11-21T08:28:00.820Z,21.1
2017-11-21T08:29:00.867Z,21.4
2017-11-21T08:30:00.819Z,21.4
2017-11-21T08:31:00.811Z,21.7
2017-11-21T08:32:00.798Z,22.1
2017-11-21T08:33:00.798Z,21.7
2017-11-21T08:34:00.845Z,21.1
2017-11-21T08:35:00.813Z,21
2017-11-21T08:36:00.816Z,21
2017-11-21T08:37:01.884Z,20.8
2017-11-21T08:38:01.198Z,21.1
2017-11-21T08:39:00.874Z,20
2017-11-21T08:40:00.813Z,20.4
2017-11-21T08:41:00.802Z,20.1
2017-11-21T08:42:00.794Z,20
2017-11-21T08:43:01.600Z,20.1
2017-11-21T08:44:00.881Z,20.4
2017-11-21T08:45:00.791Z,20.8
2017-11-21T08:46:00.803Z,20.9
2017-11-21T08:47:00.805Z,21.4
2017-11-21T08:48:00.790Z,21.7
2017-11-21T08:49:00.861Z,22.3
2017-11-21T08:50:00.798Z,22.2
2017-11-21T08:51:00.797Z,22.9
2017-11-21T08:52:00.798Z,22.8
2017-11-21T08:53:00.809Z,23.3
2017-11-21T08:54:00.866Z,24.1
2017-11-21T08:55:00.785Z,24.2
2017-11-21T08:56:00.808Z,24.6
2017-11-21T08:57:00.795Z,23.9
2017-11-21T08:58:00.811Z,23.5
2017-11-21T08:59:00.840Z,23.1
2017-11-21T09:00:00.795Z,22.6
2017-11-21T09:01:00.792Z,22.7
2017-11-21T09:02:01.168Z,22.5
2017-11-21T09:03:00.801Z,22.1
2017-11-21T09:04:00.863Z,21.6
2017-11-21T09:05:00.795Z,21.1
2017-11-21T09:06:00.798Z,20.4
2017-11-21T09:07:00.832Z,20
2017-11-21T09:08:00.923Z,20
2017-11-21T09:09:00.908Z,20.5
2017-11-21T09:10:00.795Z,20
2017-11-21T09:11:00.845Z,20.5
2017-11-21T09:12:00.804Z,20.4
2017-11-21T09:13:00.795Z,20.3
2017-11-21T09:14:00.861Z,20.3
2017-11-21T09:15:00.805Z,20.1
2017-11-21T09:16:00.790Z,20.2
2017-11-21T09:17:00.787Z,20.5
2017-11-21T09:18:00.797Z,20.1
2017-11-21T09:19:00.837Z,20.6
2017-11-21T09:20:00.791Z,19.9
2017-11-21T09:21:00.791Z,20.5
2017-11-21T09:22:00.792Z,20.3
2017-11-21T09:23:00.793Z,20.8
2017-11-21T09:24:00.907Z,20.9
2017-11-21T09:25:00.781Z,20.3
2017-11-21T09:26:00.786Z,20
2017-11-21T09:27:00.860Z,20
2017-11-21T09:28:00.790Z,20.4
2017-11-21T09:29:00.838Z,21
2017-11-21T09:30:00.992Z,20.7
2017-11-21T09:31:00.772Z,20.3
2017-11-21T09:32:00.897Z,20.8
2017-11-21T09:33:00.774Z,20.9
2017-11-21T09:34:01.396Z,20.9
2017-11-21T09:35:00.791Z,21.3
2017-11-21T09:36:00.787Z,21.3
2017-11-21T09:37:01.778Z,21.5
2017-11-21T09:38:00.766Z,22.3
2017-11-21T09:39:00.852Z,22.2
2017-11-21T09:40:00.792Z,22.1
2017-11-21T09:41:00.769Z,22
2017-11-21T09:42:00.788Z,22.3
2017-11-21T09:43:00.772Z,22.7
2017-11-21T09:44:00.836Z,23.1
2017-11-21T09:45:00.788Z,23.1
2017-11-21T09:46:00.772Z,23.1
2017-11-21T09:47:00.774Z,23
2017-11-21T09:48:00.800Z,23
2017-11-21T09:49:00.787Z,22.3
2017-11-21T09:50:00.784Z,22
2017-11-21T09:51:00.798Z,22.1
2017-11-21T09:52:00.779Z,22
2017-11-21T09:53:00.792Z,22.3
2017-11-21T09:54:49.616Z,2.1
2017-11-21T09:55:49.550Z,4.6
2017-11-21T09:56:49.549Z,6.4
2017-11-21T09:57:49.560Z,7.7
2017-11-21T09:58:49.542Z,9.4
2017-11-21T09:59:49.598Z,10.2
2017-11-21T10:00:49.532Z,10.9
2017-11-21T10:01:49.545Z,11.8
2017-11-21T10:02:49.547Z,11.5
2017-11-21T10:03:49.549Z,12.2
2017-11-21T10:04:49.598Z,13
2017-11-21T10:05:49.535Z,14
2017-11-21T10:06:49.548Z,14.7
2017-11-21T10:07:49.578Z,15.6
2017-11-21T10:08:49.542Z,15.4
2017-11-21T10:09:49.574Z,15.9
2017-11-21T10:10:49.525Z,16.8
2017-11-21T10:11:49.534Z,17.4
2017-11-21T10:12:49.539Z,16.7
2017-11-21T10:13:49.533Z,16.1
2017-11-21T10:14:49.609Z,15.8
2017-11-21T10:15:49.527Z,16.3
2017-11-21T10:16:49.533Z,17.2
2017-11-21T10:17:49.563Z,16.5
2017-11-21T10:18:49.540Z,16.5
2017-11-21T10:19:49.576Z,16.7
2017-11-21T10:20:49.536Z,16.3
2017-11-21T10:21:49.549Z,16.4
2017-11-21T10:22:49.540Z,16.2
2017-11-21T10:23:49.534Z,15.9
2017-11-21T10:24:49.523Z,15.6
2017-11-21T10:25:49.535Z,15.3
2017-11-21T10:26:49.546Z,15.5
2017-11-21T10:27:49.528Z,14.8
2017-11-21T10:28:49.540Z,14.7
2017-11-21T10:29:49.525Z,14.4
2017-11-21T10:30:49.535Z,14.1
2017-11-21T10:31:49.540Z,14.2
2017-11-21T10:32:49.529Z,14.6
2017-11-21T10:33:49.516Z,14.9
2017-11-21T10:34:49.517Z,14.3
2017-11-21T10:35:49.586Z,14.9
2017-11-21T10:36:49.560Z,15.3
2017-11-21T10:37:49.525Z,15.3
2017-11-21T10:38:49.541Z,15.5
2017-11-21T10:39:49.536Z,15
2017-11-21T10:40:49.520Z,14.7
2017-11-21T10:41:49.530Z,14.5
2017-11-21T10:42:49.533Z,14.1
2017-11-21T10:43:49.537Z,14
2017-11-21T10:44:49.526Z,14.4
2017-11-21T10:45:49.531Z,14.9
2017-11-21T10:46:49.549Z,15.1
2017-11-21T10:47:49.541Z,15.6
2017-11-21T10:48:49.511Z,15.2
2017-11-21T10:49:49.518Z,15
2017-11-21T10:50:49.513Z,14.9
2017-11-21T10:51:49.524Z,16
2017-11-21T10:52:49.517Z,16.8
2017-11-21T10:53:49.522Z,16.2
2017-11-21T10:54:49.539Z,16
2017-11-21T10:55:49.521Z,15.9
2017-11-21T10:56:49.524Z,15.4
2017-11-21T10:57:49.530Z,15.1
2017-11-21T10:58:49.523Z,15.4
2017-11-21T10:59:49.519Z,14.9
2017-11-21T11:00:49.569Z,14.9
2017-11-21T11:01:49.524Z,15.3
2017-11-21T11:02:49.520Z,15.6
2017-11-21T11:03:49.513Z,15.1
2017-11-21T11:04:49.515Z,15.9
2017-11-21T11:05:49.563Z,15.3
2017-11-21T11:06:49.535Z,15.7
2017-11-21T11:07:49.526Z,16.1
2017-11-21T11:08:49.518Z,16.3
2017-11-21T11:09:49.519Z,16.6
2017-11-21T11:10:49.579Z,16.7
2017-11-21T11:11:49.526Z,16.8
2017-11-21T11:12:49.514Z,16.9
2017-11-21T11:13:49.532Z,16.5
2017-11-21T11:14:49.525Z,16
2017-11-21T11:15:49.573Z,16.3
2017-11-21T11:16:49.528Z,16.3
2017-11-21T11:17:49.507Z,16.5
2017-11-21T11:18:49.515Z,17
2017-11-21T11:19:49.524Z,17.5
2017-11-21T11:20:49.568Z,17.6
2017-11-21T11:21:49.536Z,18
2017-11-21T11:22:49.522Z,18
2017-11-21T11:23:49.516Z,18.4
2017-11-21T11:24:49.509Z,18.7
2017-11-21T11:25:49.570Z,19.7
2017-11-21T11:26:49.506Z,19.8
2017-11-21T11:27:49.499Z,20.1
2017-11-21T11:28:49.512Z,20
2017-11-21T11:29:49.514Z,20.1
2017-11-21T11:30:49.598Z,20.7
2017-11-21T11:31:49.510Z,21.7
2017-11-21T11:32:49.509Z,21.9
2017-11-21T11:33:49.516Z,21.5
2017-11-21T11:34:49.503Z,21.7
2017-11-21T11:35:49.568Z,22.1
2017-11-21T11:36:49.510Z,20.7
2017-11-21T11:37:49.510Z,20.2
2017-11-21T11:38:49.515Z,20
2017-11-21T11:39:49.502Z,19.6
2017-11-21T11:40:49.547Z,19.5
2017-11-21T11:41:49.506Z,19.1
2017-11-21T11:42:49.504Z,18.5
2017-11-21T11:43:49.507Z,18.4
2017-11-21T11:44:49.521Z,18.4
2017-11-21T11:45:49.613Z,18.4
2017-11-21T11:46:49.501Z,18.1
2017-11-21T11:47:49.500Z,17.8
2017-11-21T11:48:49.497Z,17.6
2017-11-21T11:49:49.501Z,18.1
2017-11-21T11:50:49.548Z,18.8
2017-11-21T11:51:49.507Z,18.8
2017-11-21T11:52:51.561Z,18.8
2017-11-21T11:53:49.508Z,18.1
2017-11-21T11:54:49.513Z,18.3
2017-11-21T11:55:49.546Z,18.3
2017-11-21T11:56:49.492Z,17.8
2017-11-21T11:57:49.511Z,17.5
2017-11-21T11:58:49.509Z,18.1
2017-11-21T11:59:49.509Z,18.3
2017-11-21T12:00:49.558Z,19.1
2017-11-21T12:01:49.496Z,19.3
2017-11-21T12:02:49.499Z,19.9
2017-11-21T12:03:49.509Z,20.5
2017-11-21T12:04:49.512Z,21
2017-11-21T12:05:49.552Z,21.5
2017-11-21T12:06:49.493Z,21.8
2017-11-21T12:07:49.506Z,22.2
2017-11-21T12:08:49.503Z,22.6
2017-11-21T12:09:49.502Z,22.7
2017-11-21T12:10:49.491Z,22.1
2017-11-21T12:11:49.480Z,22.6
2017-11-21T12:12:49.492Z,22.6
2017-11-21T12:13:49.504Z,23.1
2017-11-21T12:14:49.505Z,23.2
2017-11-21T12:15:49.505Z,23.1
2017-11-21T12:16:49.511Z,23.1
2017-11-21T12:17:49.499Z,23.2
2017-11-21T12:18:49.512Z,23.1
2017-11-21T12:19:49.491Z,22.6
2017-11-21T12:20:49.488Z,21.8
2017-11-21T12:21:49.538Z,22.1
2017-11-21T12:22:49.526Z,22.8
2017-11-21T12:23:49.896Z,23.3
2017-11-21T12:24:49.543Z,23.2
2017-11-21T12:25:50.015Z,23.1
2017-11-21T12:26:49.538Z,23.1
2017-11-21T12:27:49.501Z,22.8
2017-11-21T12:28:49.649Z,22.7
2017-11-21T12:29:49.789Z,23
2017-11-21T12:30:49.696Z,23.5
2017-11-21T12:31:49.498Z,23.8
2017-11-21T12:32:50.368Z,23.6
2017-11-21T12:33:49.911Z,23.8
2017-11-21T12:34:49.497Z,23.2
2017-11-21T12:35:49.493Z,22.9
2017-11-21T12:36:49.628Z,23.1
2017-11-21T12:37:49.517Z,23.3
2017-11-21T12:38:49.520Z,22.8
2017-11-21T12:39:49.640Z,22
2017-11-21T12:40:51.353Z,22.3
2017-11-21T12:41:49.808Z,22.7
2017-11-21T12:42:49.669Z,22.4
2017-11-21T12:43:49.662Z,22.7
2017-11-21T12:44:49.659Z,22.5
2017-11-21T12:45:49.492Z,22
2017-11-21T12:46:49.505Z,22.3
2017-11-21T12:47:49.558Z,22.3
2017-11-21T12:48:49.548Z,22
2017-11-21T12:49:49.514Z,21.9
2017-11-21T12:50:49.493Z,21.9
2017-11-21T12:51:49.550Z,21.8
2017-11-21T12:52:49.475Z,21.4
2017-11-21T12:53:49.478Z,20.6
2017-11-21T12:54:49.723Z,20.9
2017-11-21T12:55:49.698Z,20.9
2017-11-21T12:56:49.586Z,21.9
2017-11-21T12:57:50.974Z,22.4
2017-11-21T12:58:49.846Z,22.2
2017-11-21T12:59:49.735Z,22
2017-11-21T13:00:51.896Z,22
2017-11-21T13:01:49.684Z,23
2017-11-21T13:02:49.628Z,23
2017-11-21T13:03:49.486Z,23.2
2017-11-21T13:04:49.511Z,22.8
2017-11-21T13:05:50.113Z,22.2
2017-11-21T13:06:49.553Z,21.9
2017-11-21T13:07:49.501Z,22.1
2017-11-21T13:08:49.552Z,22.7
2017-11-21T13:09:49.732Z,22
2017-11-21T13:10:49.515Z,22.2
2017-11-21T13:11:50.629Z,22.2
2017-11-21T13:12:49.535Z,22.1
2017-11-21T13:13:49.495Z,22.4
2017-11-21T13:14:49.477Z,22.7
2017-11-21T13:15:49.474Z,22.9
2017-11-21T13:16:49.488Z,22.8
2017-11-21T13:17:49.482Z,23
2017-11-21T13:18:49.473Z,22.8
2017-11-21T13:19:49.479Z,23
2017-11-21T13:20:49.481Z,23.4
2017-11-21T13:21:49.482Z,23.6
2017-11-21T13:22:49.610Z,22.8
2017-11-21T13:23:49.472Z,22.8
2017-11-21T13:24:49.471Z,22.8
2017-11-21T13:25:49.468Z,22.9
2017-11-21T13:26:49.494Z,22.1
2017-11-21T13:27:49.470Z,20.5
2017-11-21T13:28:49.472Z,20.2
2017-11-21T13:29:49.471Z,19.8
2017-11-21T13:30:49.479Z,20.2
2017-11-21T13:31:49.470Z,20.2
2017-11-21T13:32:49.457Z,20.2
2017-11-21T13:33:49.468Z,19.9
2017-11-21T13:34:49.478Z,20